Aeroporto :
LOGIN :

Iscrizione | Disclaimer

   EN    FR    IT 

 










Sommario :    VFR   VFR Marginale   IFR   IFR Intensivo   IFR Molto Intensivo
Visibilità : 
Base nubi : 
>= 8 km
>= 3000ft
5 / 8 km
1000 / 3000 ft
1500m / 5 km
500 / 1000 ft
800 / 1500m
200 / 500 ft
< 800m
< 200 ft
Simboli :   Temporali  Nebbia  Neve Forte  Precipitazioni Forti  Vento > 20 kt
SIGMETs :   Varie  Temporali  Ghiacco  Turbolenza  Onda orograficha  Ceneri Vulcaniche






- Altitudine del aeroporto : 1416 ft
- Codice IATA : ZRH


LSZH - Zurich

ULTIMO METAR :
  • 200350Z VRB01KT 9999 FEW026 BKN028 04/01 Q1016 NOSIG

METARs OBSOLETI :
  • 200320Z 05004KT 020V080 9999 FEW027 BKN028 04/01 Q1016 NOSIG
  • 200250Z VRB02KT 9999 FEW027 BKN030 04/01 Q1016 NOSIG
  • 200220Z VRB02KT 9999 OVC030 04/01 Q1016 NOSIG
  • 200150Z VRB03KT 9999 FEW027 BKN031 04/02 Q1016 NOSIG
  • 200120Z VRB02KT 9999 FEW027 BKN033 04/01 Q1016 NOSIG

TAF TAF LSZH
Valido dal 20 a 03 ore il 21 a 09 ore UTC


200225Z 2003/2109 VRB03KT 9999 FEW025 BKN030 TX05/2014Z TN03/2006Z TN02/2106Z
BECMG 2008/2010 04005KT
PROB30 2015/2019 SCT015
BECMG 2015/2018 VRB03KT
BECMG 2019/2022 BKN014
PROB40 2100/2109 4500 BR BKN008
ATIS : +41 43 816 2295 (DEP) +41 43 816 2294 (ARR)



MetMap, La meteo Aeronautica in un colpo d'occhio ! - Copyright ORBIFLY Dicembre 2007 - Disclaimer

ORBIFLY MET'MAP TEAM :

Programmazione e sviluppo : Alexandra Zaïnal
Concezione e sviluppo : Baudouin d'Aumeries
Co-Programmazione e sviluppo : Marc-Olivier Méhu
Supporto tecnico e logistico : Manuel Goepfert
Aiuto per la traduzione : Arnaldo La Scala

Contatto : metmap@orbifly.com




FONTI E CREDITI :

   NOAA